Time;durP1;ratioP1;P1;durP2;ratioP2;P2;SDS_P1;SDS_P2;PMS_P1;PMS_P2;Temp;Humidity;BMP_temperature;BMP_pressure;BME280_temperature;BME280_humidity;BME280_pressure;Samples;Min_cycle;Max_cycle;Signal;HPM_P1;HPM_P2
2021/12/17 00:00:20;;;;;;;21.60;10.40;;;8.20;98.30;;;;;;5123621;23;20554;-85
2021/12/17 00:04:53;;;;;;;17.87;10.67;;;8.20;98.30;;;;;;5098541;23;20428;-85
2021/12/17 00:06:56;;;;;;;17.27;9.23;;;8.20;98.30;;;;;;5115752;23;20415;-85
2021/12/17 00:09:00;;;;;;;20.10;11.57;;;8.20;98.30;;;;;;5124242;23;20466;-86
2021/12/17 00:11:04;;;;;;;17.37;11.77;;;8.20;98.30;;;;;;5124134;23;20447;-85
2021/12/17 00:13:08;;;;;;;15.43;10.77;;;8.20;98.30;;;;;;5124865;23;20434;-85
2021/12/17 00:15:12;;;;;;;16.10;9.80;;;8.30;98.30;;;;;;5124754;23;20452;-85
2021/12/17 00:17:21;;;;;;;17.80;9.63;;;8.20;98.30;;;;;;5124841;23;20483;-85
2021/12/17 00:19:38;;;;;;;17.57;10.00;;;8.20;98.30;;;;;;5124180;23;20518;-86
2021/12/17 00:50:35;;;;;;;17.70;11.27;;;8.40;98.30;;;;;;5125463;23;20448;-86
2021/12/17 00:52:39;;;;;;;17.13;10.47;;;8.40;98.30;;;;;;5125260;23;20454;-85
2021/12/17 00:54:43;;;;;;;16.70;10.37;;;8.40;98.30;;;;;;5125696;23;20518;-84
2021/12/17 00:56:49;;;;;;;18.67;10.30;;;8.40;98.30;;;;;;5125722;23;20484;-84
2021/12/17 00:58:52;;;;;;;20.67;11.70;;;8.40;98.30;;;;;;5125642;23;20428;-84
2021/12/17 01:00:56;;;;;;;19.77;10.70;;;8.40;98.30;;;;;;5125596;23;20469;-84
2021/12/17 01:02:59;;;;;;;19.50;11.13;;;8.40;98.30;;;;;;5125955;23;20429;-84
2021/12/17 01:05:07;;;;;;;21.47;12.27;;;8.30;98.30;;;;;;5125266;23;20498;-85
2021/12/17 01:07:13;;;;;;;18.70;10.77;;;8.30;98.30;;;;;;5125854;23;21154;-84
2021/12/17 01:09:20;;;;;;;20.77;10.67;;;8.30;98.30;;;;;;5125544;23;20961;-84
2021/12/17 01:11:23;;;;;;;25.83;12.07;;;8.30;98.30;;;;;;5125844;23;20487;-84
2021/12/17 01:13:29;;;;;;;18.80;10.90;;;8.30;98.30;;;;;;5125787;23;20507;-85
2021/12/17 01:15:32;;;;;;;20.13;11.77;;;8.30;98.30;;;;;;5125246;23;20456;-85
2021/12/17 01:17:39;;;;;;;20.17;12.23;;;8.30;98.30;;;;;;5125314;23;20461;-85
2021/12/17 01:20:12;;;;;;;21.03;11.53;;;8.30;98.30;;;;;;5124451;23;20832;-85
2021/12/17 01:22:52;;;;;;;19.97;14.03;;;8.30;98.30;;;;;;5116865;23;20435;-84
2021/12/17 01:25:00;;;;;;;19.93;10.33;;;8.40;98.30;;;;;;5126074;23;20454;-85
2021/12/17 01:38:59;;;;;;;15.70;8.77;;;8.20;98.30;;;;;;5125217;23;20510;-85
2021/12/17 01:43:06;;;;;;;12.60;7.37;;;8.40;98.30;;;;;;5124997;23;20432;-84
2021/12/17 01:45:11;;;;;;;13.83;7.93;;;8.40;98.30;;;;;;5125352;23;20426;-87
2021/12/17 01:47:15;;;;;;;14.03;7.17;;;8.40;98.30;;;;;;5125244;23;20425;-86
2021/12/17 01:55:39;;;;;;;11.37;7.10;;;8.40;98.30;;;;;;5124464;23;20802;-86
2021/12/17 02:01:17;;;;;;;16.67;7.07;;;8.20;98.30;;;;;;5096639;23;20446;-85
2021/12/17 02:03:21;;;;;;;14.53;8.57;;;8.20;98.30;;;;;;5124920;23;20507;-84
2021/12/17 02:05:24;;;;;;;11.70;6.27;;;8.10;98.30;;;;;;5126791;23;20505;-84
2021/12/17 02:07:27;;;;;;;12.50;7.00;;;8.20;98.30;;;;;;5126572;23;20504;-83
2021/12/17 02:31:02;;;;;;;14.37;7.90;;;8.20;98.30;;;;;;5131851;23;20492;-86
2021/12/17 02:33:05;;;;;;;13.93;7.70;;;8.10;98.30;;;;;;5124967;23;20423;-85
2021/12/17 02:37:30;;;;;;;11.83;6.30;;;8.00;98.30;;;;;;5112740;23;20446;-85
2021/12/17 02:39:54;;;;;;;10.43;6.37;;;8.00;98.30;;;;;;5125049;23;20408;-86
2021/12/17 02:46:39;;;;;;;11.37;6.33;;;8.10;98.30;;;;;;5124243;23;20519;-86
2021/12/17 02:48:43;;;;;;;8.90;5.07;;;8.10;98.30;;;;;;5124115;23;20506;-85
2021/12/17 02:50:48;;;;;;;9.53;5.20;;;8.20;98.30;;;;;;5124885;23;20443;-85
2021/12/17 02:52:55;;;;;;;8.97;5.80;;;8.20;98.30;;;;;;5124320;23;20430;-84
2021/12/17 02:54:59;;;;;;;7.90;4.70;;;8.20;98.30;;;;;;5124897;23;20498;-84
2021/12/17 02:57:04;;;;;;;8.87;5.37;;;8.20;98.30;;;;;;5124729;23;20419;-84
2021/12/17 02:59:10;;;;;;;9.87;5.47;;;8.20;98.30;;;;;;5124327;23;20457;-84
2021/12/17 03:01:13;;;;;;;7.00;4.60;;;8.30;98.30;;;;;;5124378;23;20542;-84
2021/12/17 03:03:19;;;;;;;7.80;4.50;;;8.30;98.30;;;;;;5124387;23;20433;-84
2021/12/17 03:05:24;;;;;;;8.27;5.00;;;8.30;98.30;;;;;;5124444;23;20455;-84
2021/12/17 03:07:28;;;;;;;8.23;5.17;;;8.30;98.30;;;;;;5124317;23;20456;-84
2021/12/17 03:09:47;;;;;;;6.60;4.80;;;8.30;98.30;;;;;;5123894;23;20431;-84
2021/12/17 03:11:50;;;;;;;6.67;4.67;;;8.30;98.30;;;;;;5124697;23;21149;-86
2021/12/17 03:13:54;;;;;;;5.43;4.03;;;8.30;98.30;;;;;;5125148;23;20452;-86
2021/12/17 03:16:01;;;;;;;8.80;4.90;;;8.30;98.30;;;;;;5125041;23;20439;-85
2021/12/17 03:25:14;;;;;;;6.67;3.80;;;8.40;98.30;;;;;;5124627;23;20433;-84
2021/12/17 03:27:17;;;;;;;6.87;4.07;;;8.30;98.30;;;;;;5124685;23;20430;-85
2021/12/17 03:29:20;;;;;;;7.30;4.70;;;8.20;98.30;;;;;;5124327;23;20428;-85
2021/12/17 03:31:25;;;;;;;8.17;4.97;;;8.30;98.30;;;;;;5124847;23;20434;-85
2021/12/17 03:33:29;;;;;;;5.77;4.30;;;8.20;98.30;;;;;;5125121;23;20523;-85
2021/12/17 03:35:32;;;;;;;7.33;4.10;;;8.20;98.30;;;;;;5130089;23;20932;-84
2021/12/17 03:37:35;;;;;;;4.47;2.93;;;8.20;98.30;;;;;;5124591;23;20905;-86
2021/12/17 03:39:39;;;;;;;4.10;3.40;;;8.10;98.30;;;;;;5123965;23;20439;-86
2021/12/17 03:41:50;;;;;;;3.77;3.10;;;8.10;98.30;;;;;;5124481;23;20438;-85
2021/12/17 03:43:55;;;;;;;4.20;3.20;;;8.00;98.30;;;;;;5124724;23;20427;-85
2021/12/17 03:45:58;;;;;;;3.97;3.20;;;8.00;98.30;;;;;;5124782;23;20945;-84
2021/12/17 03:48:01;;;;;;;4.83;3.33;;;8.00;98.30;;;;;;5124808;23;20731;-85
2021/12/17 03:50:06;;;;;;;3.57;2.97;;;8.10;98.30;;;;;;5124395;23;20443;-87
2021/12/17 03:52:09;;;;;;;3.90;2.93;;;8.10;98.30;;;;;;5124481;23;20429;-85
2021/12/17 03:54:12;;;;;;;4.43;3.00;;;8.00;98.30;;;;;;5123637;23;20432;-86
2021/12/17 03:56:15;;;;;;;4.20;3.03;;;8.00;98.30;;;;;;5124098;23;20452;-86
2021/12/17 03:58:19;;;;;;;5.07;3.80;;;7.90;98.30;;;;;;5123706;23;20445;-85
2021/12/17 04:11:33;;;;;;;3.63;3.00;;;7.90;98.30;;;;;;5119189;23;20469;-77
2021/12/17 04:13:38;;;;;;;2.80;2.27;;;7.90;98.30;;;;;;5118600;23;20517;-79
2021/12/17 04:15:43;;;;;;;2.70;2.20;;;7.90;98.30;;;;;;5119022;23;20411;-79
2021/12/17 04:17:53;;;;;;;3.93;2.43;;;7.90;98.30;;;;;;5118667;23;20428;-79
2021/12/17 04:19:56;;;;;;;3.13;2.30;;;7.80;98.30;;;;;;5118166;23;20458;-79
2021/12/17 04:21:59;;;;;;;3.27;2.30;;;7.80;98.30;;;;;;5118289;23;20426;-79
2021/12/17 04:24:02;;;;;;;4.27;2.30;;;7.80;98.30;;;;;;5118909;23;20427;-79
2021/12/17 04:26:05;;;;;;;3.97;2.70;;;7.80;98.30;;;;;;5118940;23;20427;-79
2021/12/17 04:28:08;;;;;;;3.30;2.73;;;7.80;98.30;;;;;;5119065;23;20435;-79
2021/12/17 04:30:13;;;;;;;4.80;3.07;;;7.80;98.30;;;;;;5118494;23;20998;-79
2021/12/17 04:32:16;;;;;;;4.40;2.70;;;7.90;98.30;;;;;;5119260;23;20457;-79
2021/12/17 04:34:19;;;;;;;4.70;3.43;;;7.80;98.30;;;;;;5126688;23;20417;-79
2021/12/17 04:36:26;;;;;;;4.03;2.67;;;7.90;98.30;;;;;;5119440;23;20763;-80
2021/12/17 04:38:29;;;;;;;5.30;3.40;;;7.90;98.30;;;;;;5118390;23;20431;-79
2021/12/17 04:40:32;;;;;;;6.00;3.57;;;7.90;98.30;;;;;;5118375;23;20451;-79
2021/12/17 04:42:43;;;;;;;7.17;4.10;;;7.90;98.30;;;;;;5118295;23;20428;-79
2021/12/17 04:44:52;;;;;;;7.70;3.70;;;7.90;98.30;;;;;;5118407;23;20435;-79
2021/12/17 04:57:13;;;;;;;5.87;3.80;;;7.80;98.30;;;;;;5116465;23;20469;-77
2021/12/17 04:58:42;;;;;;;7.00;4.80;;;7.80;98.30;;;;;;5115930;23;20452;-77
2021/12/17 05:00:45;;;;;;;7.00;4.27;;;7.90;98.30;;;;;;5116726;23;20454;-77
2021/12/17 05:02:52;;;;;;;6.87;4.40;;;7.90;98.30;;;;;;5125404;23;20429;-77
2021/12/17 05:04:55;;;;;;;7.40;4.30;;;7.90;98.30;;;;;;5116482;23;20461;-77
2021/12/17 05:06:58;;;;;;;7.87;4.00;;;7.90;98.30;;;;;;5116576;23;20503;-77
2021/12/17 05:09:08;;;;;;;6.17;4.37;;;7.90;98.30;;;;;;5116263;23;20490;-78
2021/12/17 05:11:26;;;;;;;8.43;3.90;;;7.90;98.30;;;;;;5116240;23;20468;-77
2021/12/17 05:18:22;;;;;;;7.80;4.67;;;7.90;98.30;;;;;;5116432;23;20451;-77
2021/12/17 05:20:32;;;;;;;8.27;5.03;;;7.90;98.30;;;;;;5116347;23;20490;-77
2021/12/17 05:22:35;;;;;;;9.33;4.37;;;7.90;98.30;;;;;;5116491;23;20911;-77
2021/12/17 05:24:38;;;;;;;9.40;4.87;;;7.90;98.30;;;;;;5116291;23;20908;-77
2021/12/17 05:26:41;;;;;;;8.77;4.77;;;7.90;98.30;;;;;;5116501;23;20795;-77
2021/12/17 05:28:44;;;;;;;8.80;5.00;;;7.90;98.30;;;;;;5116154;23;20428;-77
2021/12/17 05:30:48;;;;;;;8.80;4.20;;;7.90;98.30;;;;;;5116301;23;20450;-77
2021/12/17 05:32:50;;;;;;;12.57;5.47;;;7.90;98.30;;;;;;5116453;23;20759;-77
2021/12/17 05:34:55;;;;;;;9.13;4.87;;;7.90;98.30;;;;;;5115962;23;20526;-77
2021/12/17 05:36:57;;;;;;;8.50;5.57;;;7.80;98.30;;;;;;5116875;23;21183;-79
2021/12/17 05:39:00;;;;;;;8.90;5.77;;;7.70;98.30;;;;;;5116691;23;20458;-79
2021/12/17 05:41:28;;;;;;;9.90;6.30;;;7.70;98.30;;;;;;5116265;23;20446;-79
2021/12/17 05:43:35;;;;;;;9.37;5.23;;;7.70;98.30;;;;;;5116569;23;20443;-79
2021/12/17 05:45:50;;;;;;;13.67;5.70;;;7.80;98.30;;;;;;5117191;23;20418;-79
2021/12/17 05:47:53;;;;;;;13.53;6.70;;;7.70;98.30;;;;;;5117183;23;20773;-79
2021/12/17 05:49:57;;;;;;;16.20;6.57;;;7.70;98.30;;;;;;5115853;23;20479;-79
2021/12/17 05:52:00;;;;;;;11.10;6.10;;;7.70;98.30;;;;;;5116939;23;20427;-78
2021/12/17 05:54:03;;;;;;;11.77;5.70;;;7.60;98.30;;;;;;5118013;23;20437;-78
2021/12/17 05:56:06;;;;;;;11.87;7.00;;;7.70;98.30;;;;;;5116868;23;20744;-79
2021/12/17 05:58:09;;;;;;;10.43;5.70;;;7.60;98.30;;;;;;5116511;23;20481;-79
2021/12/17 06:00:13;;;;;;;9.93;6.40;;;7.60;98.30;;;;;;5116534;23;20529;-79
2021/12/17 06:02:19;;;;;;;11.87;6.93;;;7.60;98.30;;;;;;5116779;23;20789;-79
2021/12/17 06:04:21;;;;;;;12.47;5.53;;;7.60;98.30;;;;;;5116266;23;20443;-79
2021/12/17 06:06:50;;;;;;;10.53;5.23;;;7.50;98.30;;;;;;5116544;23;20450;-79
2021/12/17 06:08:53;;;;;;;10.77;5.70;;;7.50;98.30;;;;;;5115885;23;20485;-79
2021/12/17 06:10:56;;;;;;;8.17;5.90;;;7.50;98.30;;;;;;5116353;23;20516;-79
2021/12/17 06:13:23;;;;;;;9.67;5.50;;;7.40;98.30;;;;;;5116684;23;20906;-79
2021/12/17 06:15:26;;;;;;;13.00;6.37;;;7.40;98.30;;;;;;5117096;23;20447;-79
2021/12/17 06:17:29;;;;;;;8.93;5.70;;;7.40;98.30;;;;;;5116926;23;20437;-79
2021/12/17 06:19:32;;;;;;;9.83;5.80;;;7.40;98.30;;;;;;5116496;23;20510;-79
2021/12/17 06:21:35;;;;;;;10.47;6.10;;;7.50;98.30;;;;;;5116927;23;20446;-79
2021/12/17 06:23:39;;;;;;;8.53;5.70;;;7.50;98.30;;;;;;5116705;23;20430;-79
2021/12/17 06:25:42;;;;;;;7.77;5.87;;;7.40;98.30;;;;;;5117093;23;20522;-78
2021/12/17 06:27:46;;;;;;;9.30;5.33;;;7.30;98.30;;;;;;5116678;23;20426;-79
2021/12/17 06:29:49;;;;;;;9.07;5.53;;;7.30;98.30;;;;;;5116662;23;20426;-79
2021/12/17 06:31:52;;;;;;;8.37;5.57;;;7.30;98.30;;;;;;5116474;23;20437;-80
2021/12/17 06:33:55;;;;;;;11.80;6.77;;;7.40;98.30;;;;;;5116881;23;20422;-79
2021/12/17 06:35:58;;;;;;;12.67;6.60;;;7.50;98.30;;;;;;5117547;23;20915;-79
2021/12/17 06:38:00;;;;;;;11.93;7.60;;;7.50;98.30;;;;;;5117103;23;20903;-79
2021/12/17 06:40:06;;;;;;;10.20;6.60;;;7.60;98.30;;;;;;5116478;23;20545;-79
2021/12/17 06:42:10;;;;;;;12.03;6.70;;;7.50;98.30;;;;;;5116630;23;20419;-80
2021/12/17 06:44:16;;;;;;;9.50;5.50;;;7.50;98.30;;;;;;5117494;23;20538;-79
2021/12/17 06:46:24;;;;;;;8.60;5.23;;;7.60;98.30;;;;;;5117056;23;20427;-79
2021/12/17 06:48:29;;;;;;;9.47;5.90;;;7.60;98.30;;;;;;5116658;23;20911;-79
2021/12/17 06:55:37;;;;;;;11.47;5.83;;;7.50;98.30;;;;;;5116608;23;20414;-79
2021/12/17 06:58:27;;;;;;;10.50;6.73;;;7.50;98.30;;;;;;5117218;23;20492;-79
2021/12/17 07:00:37;;;;;;;10.20;7.00;;;7.50;98.30;;;;;;5116394;23;20825;-79
2021/12/17 07:22:18;;;;;;;6.50;4.87;;;7.40;98.30;;;;;;4168899;27;20603;-77
2021/12/17 07:34:07;;;;;;;10.73;6.40;;;7.60;98.30;;;;;;4184238;28;20477;-77
2021/12/17 07:36:13;;;;;;;12.37;7.30;;;7.50;98.30;;;;;;4155136;28;20471;-77
2021/12/17 07:40:38;;;;;;;12.00;7.97;;;7.50;98.30;;;;;;4153898;28;20522;-77
2021/12/17 07:42:42;;;;;;;14.87;8.40;;;7.50;98.30;;;;;;4149248;28;20497;-77
2021/12/17 07:44:48;;;;;;;12.40;8.80;;;7.50;98.30;;;;;;4157448;28;20544;-77
2021/12/17 07:46:51;;;;;;;24.57;16.10;;;7.50;98.30;;;;;;4154679;28;20474;-78
2021/12/17 07:48:55;;;;;;;35.33;19.07;;;7.50;98.30;;;;;;4159905;28;20863;-77
2021/12/17 07:50:59;;;;;;;26.70;16.07;;;7.50;98.30;;;;;;4157800;28;20468;-77
2021/12/17 07:53:02;;;;;;;23.07;15.33;;;7.50;98.30;;;;;;4189017;28;20497;-77
2021/12/17 07:55:09;;;;;;;12.90;10.20;;;7.50;98.30;;;;;;4156507;28;20507;-77
2021/12/17 07:57:12;;;;;;;11.83;8.90;;;7.50;98.30;;;;;;4145494;28;20484;-78
2021/12/17 07:59:15;;;;;;;14.17;8.93;;;7.60;98.30;;;;;;4155440;28;20481;-77
2021/12/17 08:01:18;;;;;;;12.93;9.50;;;7.60;98.30;;;;;;4156011;28;20486;-78
2021/12/17 08:03:21;;;;;;;15.90;11.77;;;7.50;98.30;;;;;;4153869;28;20486;-78
2021/12/17 08:05:24;;;;;;;17.57;10.80;;;7.50;98.30;;;;;;4150472;28;21031;-78
2021/12/17 08:07:27;;;;;;;15.73;10.27;;;7.50;98.30;;;;;;4153727;28;22255;-78
2021/12/17 08:09:30;;;;;;;31.50;20.83;;;7.50;98.30;;;;;;4156379;28;20492;-77
2021/12/17 08:11:38;;;;;;;36.43;24.47;;;7.50;98.30;;;;;;4157389;28;20527;-77
2021/12/17 08:13:44;;;;;;;26.57;15.37;;;7.60;98.30;;;;;;4154751;28;20489;-78
2021/12/17 08:16:01;;;;;;;16.67;11.23;;;7.70;98.30;;;;;;4154347;28;20477;-78
2021/12/17 08:25:12;;;;;;;22.90;15.40;;;7.60;98.30;;;;;;4148924;28;20501;-77
2021/12/17 08:27:44;;;;;;;25.33;17.93;;;7.50;98.30;;;;;;4140314;28;20525;-77
2021/12/17 08:30:06;;;;;;;21.83;12.77;;;7.50;98.30;;;;;;4146096;28;20470;-77
2021/12/17 08:32:10;;;;;;;26.20;15.40;;;7.50;98.30;;;;;;4141834;28;20516;-77
2021/12/17 08:34:13;;;;;;;29.77;18.77;;;7.40;98.30;;;;;;4145506;28;20466;-76
2021/12/17 08:36:16;;;;;;;25.67;18.73;;;7.40;98.30;;;;;;4143192;28;20974;-77
2021/12/17 08:38:19;;;;;;;26.50;18.60;;;7.40;98.30;;;;;;4145684;28;20880;-77
2021/12/17 08:40:26;;;;;;;31.27;18.80;;;7.40;98.30;;;;;;4145225;28;20477;-77
2021/12/17 08:42:30;;;;;;;32.07;19.17;;;7.40;98.30;;;;;;4147678;28;20491;-77
2021/12/17 08:44:33;;;;;;;33.23;18.67;;;7.40;98.30;;;;;;4143095;28;20540;-77
2021/12/17 08:46:37;;;;;;;28.70;17.67;;;7.40;98.30;;;;;;4145929;28;20832;-77
2021/12/17 08:48:40;;;;;;;30.23;20.20;;;7.40;98.30;;;;;;4141296;28;20471;-78
2021/12/17 08:50:43;;;;;;;30.20;21.03;;;7.40;98.30;;;;;;4143500;28;20478;-77
2021/12/17 08:52:47;;;;;;;29.10;19.77;;;7.40;98.30;;;;;;4140812;28;20865;-78
2021/12/17 08:54:50;;;;;;;28.50;19.10;;;7.40;98.30;;;;;;4138202;28;20495;-77
2021/12/17 08:56:52;;;;;;;32.20;21.83;;;7.40;98.30;;;;;;4145990;28;20479;-77
2021/12/17 08:58:56;;;;;;;25.60;17.63;;;7.40;98.30;;;;;;4143144;28;20537;-77
2021/12/17 09:01:03;;;;;;;24.60;16.77;;;7.30;98.30;;;;;;4133331;28;20578;-78
2021/12/17 09:03:09;;;;;;;14.40;9.87;;;7.30;98.30;;;;;;4139576;28;20496;-78
2021/12/17 09:05:13;;;;;;;12.23;7.77;;;7.30;98.30;;;;;;4145624;28;20478;-77
2021/12/17 09:07:15;;;;;;;9.03;7.83;;;7.30;98.30;;;;;;4141049;28;20483;-77
2021/12/17 09:09:20;;;;;;;10.77;6.43;;;7.30;98.30;;;;;;4148970;28;20955;-77
2021/12/17 09:11:24;;;;;;;9.10;6.30;;;7.30;98.30;;;;;;4140663;28;20511;-78
2021/12/17 09:13:28;;;;;;;9.40;5.90;;;7.30;98.30;;;;;;4146365;28;20497;-77
2021/12/17 09:15:32;;;;;;;6.97;6.03;;;7.30;98.30;;;;;;4137903;28;20480;-77
2021/12/17 09:17:37;;;;;;;6.73;5.50;;;7.30;98.30;;;;;;4142642;28;20566;-77
2021/12/17 09:19:40;;;;;;;8.47;6.10;;;7.40;98.30;;;;;;4137327;28;20467;-78
2021/12/17 09:21:44;;;;;;;11.27;7.37;;;7.40;98.30;;;;;;4145108;28;20546;-77
2021/12/17 09:23:47;;;;;;;24.83;15.87;;;7.40;98.30;;;;;;4139157;28;20479;-77
2021/12/17 09:25:50;;;;;;;13.00;9.30;;;7.40;98.30;;;;;;4145742;28;20520;-78
2021/12/17 09:27:53;;;;;;;7.30;5.40;;;7.40;98.30;;;;;;4145332;28;20462;-77
2021/12/17 09:29:56;;;;;;;7.23;5.90;;;7.30;98.30;;;;;;4145870;28;20448;-77
2021/12/17 09:32:00;;;;;;;9.87;6.33;;;7.40;98.30;;;;;;4140222;28;20490;-78
2021/12/17 09:34:04;;;;;;;7.33;5.33;;;7.30;98.30;;;;;;4147780;28;20464;-79
2021/12/17 09:36:07;;;;;;;7.80;6.40;;;7.40;98.30;;;;;;4136309;28;20479;-77
2021/12/17 09:38:10;;;;;;;7.33;5.07;;;7.40;98.30;;;;;;4140499;28;20462;-78
2021/12/17 09:40:13;;;;;;;6.83;5.53;;;7.30;98.30;;;;;;4144681;28;20473;-78
2021/12/17 09:42:16;;;;;;;7.73;5.90;;;7.30;98.30;;;;;;4151790;28;20597;-78
2021/12/17 09:44:20;;;;;;;7.93;6.03;;;7.40;98.30;;;;;;4140553;28;20972;-78
2021/12/17 09:46:23;;;;;;;6.77;5.40;;;7.40;98.30;;;;;;4140136;28;20467;-77
2021/12/17 09:48:28;;;;;;;7.13;5.10;;;7.40;98.30;;;;;;4137216;28;20478;-77
2021/12/17 09:50:31;;;;;;;7.00;5.37;;;7.40;98.30;;;;;;4150370;28;20470;-78
2021/12/17 09:52:34;;;;;;;10.20;6.20;;;7.40;98.30;;;;;;4144916;28;20486;-77
2021/12/17 09:54:37;;;;;;;8.00;5.17;;;7.50;98.30;;;;;;4140289;28;20475;-77
2021/12/17 09:56:40;;;;;;;6.40;4.20;;;7.50;98.30;;;;;;4138292;28;20467;-78
2021/12/17 09:58:42;;;;;;;4.53;4.03;;;7.50;98.30;;;;;;4148496;28;20552;-77
2021/12/17 10:00:45;;;;;;;4.00;3.00;;;7.60;98.30;;;;;;4146716;28;20473;-77
2021/12/17 10:02:50;;;;;;;4.20;3.07;;;7.60;98.30;;;;;;4138863;28;21066;-78
2021/12/17 10:04:57;;;;;;;6.03;4.23;;;7.50;98.30;;;;;;4149883;28;20475;-78
2021/12/17 10:07:18;;;;;;;5.23;4.00;;;7.50;98.30;;;;;;4138731;28;20472;-78
2021/12/17 10:09:33;;;;;;;4.60;3.17;;;7.50;98.30;;;;;;4137042;28;20953;-77
2021/12/17 10:11:36;;;;;;;2.90;2.60;;;7.40;98.30;;;;;;4135503;28;20472;-77
2021/12/17 10:13:39;;;;;;;3.40;2.67;;;7.50;98.30;;;;;;4145321;28;20483;-78
2021/12/17 10:15:44;;;;;;;3.30;2.70;;;7.40;98.30;;;;;;4143838;28;20987;-77
2021/12/17 10:17:53;;;;;;;3.33;2.87;;;7.50;98.30;;;;;;4144038;28;20478;-79
2021/12/17 10:19:57;;;;;;;18.13;9.70;;;7.50;98.30;;;;;;4132553;28;20479;-78
2021/12/17 10:22:09;;;;;;;23.90;13.93;;;7.50;98.30;;;;;;4147856;28;20501;-77
2021/12/17 10:24:22;;;;;;;5.97;4.93;;;7.50;98.30;;;;;;4146091;28;20467;-77
2021/12/17 10:26:26;;;;;;;4.30;3.37;;;7.50;98.30;;;;;;4143228;28;20478;-77
2021/12/17 10:28:30;;;;;;;5.23;3.37;;;7.60;98.30;;;;;;4141060;28;20462;-78
2021/12/17 10:30:35;;;;;;;3.97;3.50;;;7.60;98.30;;;;;;4138946;28;20477;-78
2021/12/17 10:32:37;;;;;;;4.23;3.50;;;7.60;98.30;;;;;;4136020;28;20518;-78
2021/12/17 10:35:01;;;;;;;3.97;3.40;;;7.60;98.30;;;;;;4143805;28;20496;-77
2021/12/17 10:37:05;;;;;;;5.10;4.50;;;7.60;98.30;;;;;;4143077;28;20823;-77
2021/12/17 10:39:21;;;;;;;3.90;3.30;;;7.70;98.30;;;;;;4149182;28;20480;-77
2021/12/17 10:41:26;;;;;;;3.60;3.30;;;7.70;98.30;;;;;;4137512;28;20870;-78
2021/12/17 10:43:34;;;;;;;7.53;4.20;;;7.70;98.30;;;;;;4144394;28;20487;-78
2021/12/17 10:45:41;;;;;;;5.20;4.00;;;7.70;98.30;;;;;;4138972;28;20762;-77
2021/12/17 10:47:57;;;;;;;6.90;3.93;;;7.70;98.30;;;;;;4141998;28;20526;-78
2021/12/17 10:50:03;;;;;;;5.70;3.30;;;7.70;98.30;;;;;;4146966;28;20480;-78
2021/12/17 10:52:14;;;;;;;4.70;3.80;;;7.80;98.30;;;;;;4141676;28;20877;-77
2021/12/17 10:54:19;;;;;;;7.10;4.43;;;7.80;98.30;;;;;;4144503;28;20495;-77
2021/12/17 10:56:25;;;;;;;6.97;4.27;;;7.80;98.30;;;;;;4145528;28;20518;-77
2021/12/17 10:58:28;;;;;;;5.80;4.20;;;7.90;98.30;;;;;;4131059;28;20856;-77
2021/12/17 11:00:31;;;;;;;5.13;4.10;;;7.90;98.30;;;;;;4134873;28;20484;-78
2021/12/17 11:02:36;;;;;;;5.70;3.73;;;7.80;98.30;;;;;;4134167;28;21053;-77
2021/12/17 11:04:42;;;;;;;5.00;4.03;;;7.80;98.30;;;;;;4145756;28;21038;-78
2021/12/17 11:06:52;;;;;;;5.03;4.47;;;7.80;98.30;;;;;;4145677;28;20558;-77
2021/12/17 11:08:55;;;;;;;4.77;4.00;;;7.80;98.30;;;;;;4143016;28;20471;-78
2021/12/17 11:11:08;;;;;;;5.50;3.80;;;7.90;98.30;;;;;;4142013;28;20497;-77
2021/12/17 11:13:17;;;;;;;4.87;4.20;;;7.90;98.30;;;;;;4168657;28;20511;-77
2021/12/17 11:15:23;;;;;;;5.80;4.40;;;7.80;98.30;;;;;;4142210;28;20480;-77
2021/12/17 11:17:26;;;;;;;4.93;4.03;;;7.80;98.30;;;;;;4140909;28;20479;-77
2021/12/17 11:19:41;;;;;;;5.43;3.70;;;7.90;98.30;;;;;;4148759;28;20542;-78
2021/12/17 11:21:44;;;;;;;4.20;3.43;;;7.90;98.30;;;;;;4147535;28;20837;-77
2021/12/17 11:23:49;;;;;;;7.20;4.10;;;7.90;98.30;;;;;;4137684;28;20502;-78
2021/12/17 11:25:54;;;;;;;6.13;4.00;;;7.90;98.30;;;;;;4148285;28;20871;-78
2021/12/17 11:27:58;;;;;;;5.40;3.73;;;7.90;98.30;;;;;;4141806;28;21606;-77
2021/12/17 11:30:03;;;;;;;6.00;4.07;;;7.90;98.30;;;;;;4148557;28;20474;-76
2021/12/17 11:32:07;;;;;;;5.70;4.20;;;7.90;98.30;;;;;;4140952;28;20588;-77
2021/12/17 11:34:11;;;;;;;13.67;7.40;;;7.90;98.30;;;;;;4142999;28;20474;-77
2021/12/17 11:36:15;;;;;;;6.53;4.53;;;7.90;98.30;;;;;;4142318;28;20482;-76
2021/12/17 11:38:36;;;;;;;5.70;4.17;;;7.90;98.30;;;;;;4144845;28;20505;-77
2021/12/17 11:40:46;;;;;;;6.20;4.40;;;7.90;98.30;;;;;;4162062;28;20515;-77
2021/12/17 11:43:28;;;;;;;5.10;4.20;;;7.90;98.30;;;;;;4143238;28;20625;-76
2021/12/17 11:45:31;;;;;;;5.40;4.20;;;7.90;98.30;;;;;;4156830;28;20471;-77
2021/12/17 11:47:35;;;;;;;6.37;4.30;;;7.90;98.30;;;;;;4177082;28;20476;-77
2021/12/17 11:49:39;;;;;;;6.30;4.90;;;8.00;98.30;;;;;;4149256;28;20473;-76
2021/12/17 11:51:52;;;;;;;6.57;4.57;;;8.00;98.30;;;;;;4161685;28;20497;-76
2021/12/17 11:53:59;;;;;;;9.20;7.10;;;7.90;98.30;;;;;;4138427;28;20530;-76
2021/12/17 11:56:04;;;;;;;11.50;7.70;;;7.90;98.30;;;;;;4148774;28;20475;-76
2021/12/17 11:58:13;;;;;;;15.43;9.37;;;7.90;98.30;;;;;;4146004;28;20484;-77
2021/12/17 12:00:18;;;;;;;16.70;10.57;;;7.90;98.30;;;;;;4140870;28;20593;-76
2021/12/17 12:02:23;;;;;;;18.73;10.67;;;7.90;98.30;;;;;;4170747;28;20489;-77
2021/12/17 12:04:51;;;;;;;20.23;12.87;;;7.90;98.30;;;;;;4163917;28;20485;-76
2021/12/17 12:07:03;;;;;;;14.77;9.93;;;7.90;98.30;;;;;;4138435;28;20555;-76
2021/12/17 12:09:09;;;;;;;18.43;10.50;;;7.90;98.30;;;;;;4141270;28;20463;-76
2021/12/17 12:11:15;;;;;;;19.97;9.97;;;7.80;98.30;;;;;;4140397;28;20549;-76
2021/12/17 12:13:33;;;;;;;13.23;8.40;;;7.80;98.30;;;;;;4146760;28;20495;-76
2021/12/17 12:15:39;;;;;;;15.50;8.77;;;8.00;98.30;;;;;;4154196;28;20464;-76
2021/12/17 12:18:23;;;;;;;13.33;8.40;;;7.90;98.30;;;;;;4155668;28;20551;-77
2021/12/17 12:20:57;;;;;;;10.20;7.43;;;8.00;98.30;;;;;;4148349;28;20531;-77
2021/12/17 12:23:14;;;;;;;11.90;7.47;;;8.00;98.30;;;;;;4137615;28;20547;-77
2021/12/17 12:25:31;;;;;;;15.40;9.70;;;8.00;98.30;;;;;;4138553;28;21326;-77
2021/12/17 12:27:46;;;;;;;12.70;8.37;;;8.00;98.30;;;;;;4141996;28;20473;-76
2021/12/17 12:29:57;;;;;;;24.40;10.83;;;8.10;98.30;;;;;;4135721;28;20469;-77
2021/12/17 12:32:02;;;;;;;13.73;7.07;;;8.10;98.30;;;;;;4139445;28;20480;-77
2021/12/17 12:34:13;;;;;;;10.77;6.57;;;8.10;98.30;;;;;;4140820;28;20473;-77
2021/12/17 12:36:48;;;;;;;11.63;7.87;;;8.00;98.30;;;;;;4138077;28;20464;-76
2021/12/17 12:39:14;;;;;;;11.90;7.47;;;8.00;98.30;;;;;;4147583;28;20475;-77
2021/12/17 12:42:01;;;;;;;10.77;6.93;;;8.00;98.30;;;;;;4143236;28;20477;-77
2021/12/17 12:44:06;;;;;;;14.03;7.07;;;8.00;98.30;;;;;;4138276;28;20555;-77
2021/12/17 12:46:09;;;;;;;8.97;6.27;;;8.00;98.30;;;;;;4161346;28;20478;-77
2021/12/17 12:48:29;;;;;;;8.80;6.87;;;8.00;98.30;;;;;;4180523;28;20476;-77
2021/12/17 12:50:36;;;;;;;8.90;6.53;;;8.10;98.30;;;;;;4170315;28;20467;-77
2021/12/17 12:52:45;;;;;;;10.20;7.20;;;8.10;98.30;;;;;;4147624;28;20486;-77
2021/12/17 12:54:50;;;;;;;9.73;5.60;;;8.10;98.30;;;;;;4160365;28;20546;-77
2021/12/17 12:56:56;;;;;;;9.67;6.00;;;8.00;98.30;;;;;;4148081;28;20469;-77
2021/12/17 12:59:00;;;;;;;9.57;5.90;;;8.00;98.30;;;;;;4148365;28;20467;-77
2021/12/17 13:01:06;;;;;;;13.83;7.90;;;7.90;98.30;;;;;;4149063;28;20519;-79
2021/12/17 13:03:12;;;;;;;11.57;8.27;;;7.90;98.30;;;;;;4142946;28;20492;-77
2021/12/17 13:05:15;;;;;;;10.83;6.63;;;7.90;98.30;;;;;;4164011;28;20476;-76
2021/12/17 13:07:32;;;;;;;13.20;7.47;;;7.90;98.30;;;;;;4139074;28;20511;-78
2021/12/17 13:09:45;;;;;;;10.47;5.70;;;7.90;98.30;;;;;;4145534;28;20491;-76
2021/12/17 13:11:48;;;;;;;8.43;5.57;;;7.90;98.30;;;;;;4137433;28;20496;-77
2021/12/17 13:13:53;;;;;;;7.97;6.50;;;7.90;98.30;;;;;;4136141;28;20470;-76
2021/12/17 13:16:13;;;;;;;8.63;5.63;;;7.90;98.30;;;;;;4144880;28;20564;-76
2021/12/17 13:20:55;;;;;;;12.77;5.80;;;7.90;98.30;;;;;;4137710;28;20477;-76
2021/12/17 13:23:12;;;;;;;10.53;6.03;;;7.90;98.30;;;;;;4138395;28;20833;-77
2021/12/17 13:25:24;;;;;;;9.40;6.10;;;7.90;98.30;;;;;;4145640;28;20851;-77
2021/12/17 13:27:27;;;;;;;10.37;7.20;;;7.90;98.30;;;;;;4141368;28;20563;-76
2021/12/17 13:29:33;;;;;;;14.00;7.60;;;7.90;98.30;;;;;;4142409;28;20924;-77
2021/12/17 13:31:46;;;;;;;12.63;8.90;;;7.90;98.30;;;;;;4139219;28;20566;-77
2021/12/17 13:34:02;;;;;;;11.23;7.93;;;7.90;98.30;;;;;;4151481;28;20468;-76
2021/12/17 13:36:12;;;;;;;12.83;8.70;;;7.90;98.30;;;;;;4143699;28;20855;-77
2021/12/17 13:38:15;;;;;;;14.47;8.00;;;8.00;98.30;;;;;;4167035;28;20468;-77
2021/12/17 13:40:20;;;;;;;12.20;7.20;;;8.00;98.30;;;;;;4197078;28;20477;-77
2021/12/17 13:42:26;;;;;;;15.67;8.03;;;8.00;98.30;;;;;;4163046;28;20496;-78
2021/12/17 13:44:42;;;;;;;12.63;7.33;;;8.00;98.30;;;;;;4142216;28;20573;-76
2021/12/17 13:46:44;;;;;;;14.50;8.03;;;8.00;98.30;;;;;;4138701;28;20472;-77